createdAt,value
2022-12-29T00:00:49.847Z,11.27
2022-12-29T00:02:11.579Z,10.92
2022-12-29T00:03:33.445Z,8.95
2022-12-29T00:04:55.436Z,6.69
2022-12-29T00:06:17.879Z,9.70
2022-12-29T00:07:39.524Z,8.27
2022-12-29T00:09:01.008Z,8.39
2022-12-29T00:10:22.442Z,7.41
2022-12-29T00:11:43.556Z,7.39
2022-12-29T00:13:04.929Z,6.62
2022-12-29T00:14:26.756Z,7.29
2022-12-29T00:15:48.146Z,8.08
2022-12-29T00:17:09.532Z,7.55
2022-12-29T00:18:30.636Z,6.92
2022-12-29T00:19:51.912Z,7.44
2022-12-29T00:22:25.657Z,10.01
2022-12-29T00:23:47.041Z,7.76
2022-12-29T00:25:09.588Z,8.69
2022-12-29T00:26:31.025Z,9.86
2022-12-29T00:27:52.376Z,9.62
2022-12-29T00:29:13.831Z,12.83
2022-12-29T00:30:35.487Z,12.08
2022-12-29T00:31:56.890Z,13.37
2022-12-29T00:33:19.467Z,14.26
2022-12-29T00:34:40.505Z,14.06
2022-12-29T00:36:07.260Z,12.99
2022-12-29T00:37:29.132Z,20.18
2022-12-29T00:38:51.980Z,19.42
2022-12-29T00:40:13.829Z,17.72
2022-12-29T00:41:35.045Z,20.59
2022-12-29T00:42:56.700Z,10.42
2022-12-29T00:44:18.090Z,15.02
2022-12-29T00:45:43.399Z,10.81
2022-12-29T00:47:04.996Z,14.69
2022-12-29T00:48:26.583Z,12.79
2022-12-29T00:49:48.212Z,16.12
2022-12-29T00:51:09.655Z,13.66
2022-12-29T00:52:30.670Z,14.98
2022-12-29T00:53:52.447Z,12.33
2022-12-29T00:55:14.068Z,11.48
2022-12-29T00:56:35.598Z,17.30
2022-12-29T00:57:57.080Z,36.11
2022-12-29T00:59:18.604Z,29.88
2022-12-29T01:00:40.069Z,10.94
2022-12-29T01:02:01.374Z,11.76
2022-12-29T01:03:22.973Z,12.17
2022-12-29T01:04:44.418Z,15.68
2022-12-29T01:06:07.811Z,28.29
2022-12-29T01:08:49.539Z,11.39
2022-12-29T01:10:11.144Z,9.65
2022-12-29T01:11:32.555Z,10.84
2022-12-29T01:12:53.983Z,10.31
2022-12-29T01:14:15.029Z,10.47
2022-12-29T01:15:36.372Z,11.79
2022-12-29T01:16:57.611Z,11.98
2022-12-29T01:18:18.753Z,14.19
2022-12-29T01:19:39.984Z,16.46
2022-12-29T01:21:01.939Z,16.98
2022-12-29T01:22:23.365Z,8.98
2022-12-29T01:23:44.508Z,16.53
2022-12-29T01:26:16.471Z,13.45
2022-12-29T01:27:38.337Z,12.36
2022-12-29T01:28:59.821Z,11.39
2022-12-29T01:30:21.954Z,10.91
2022-12-29T01:31:43.153Z,11.78
2022-12-29T01:33:04.380Z,12.48
2022-12-29T01:34:25.933Z,10.93
2022-12-29T01:35:47.466Z,13.11
2022-12-29T01:37:08.443Z,11.70
2022-12-29T01:38:29.931Z,12.86
2022-12-29T01:39:51.204Z,13.74
2022-12-29T01:41:13.507Z,23.79
2022-12-29T01:43:57.845Z,19.03
2022-12-29T01:45:18.877Z,21.41
2022-12-29T01:46:44.239Z,19.02
2022-12-29T01:48:05.418Z,22.07
2022-12-29T01:49:27.256Z,21.79
2022-12-29T01:52:05.417Z,21.43
2022-12-29T01:53:28.255Z,26.06
2022-12-29T01:56:12.683Z,24.71
2022-12-29T01:57:36.332Z,22.70
2022-12-29T01:59:04.278Z,18.30
2022-12-29T02:00:25.635Z,15.64
2022-12-29T02:01:47.104Z,13.73
2022-12-29T02:03:08.491Z,17.08
2022-12-29T02:04:30.680Z,14.32
2022-12-29T02:06:01.156Z,12.66
2022-12-29T02:07:23.265Z,13.79
2022-12-29T02:08:46.490Z,11.71
2022-12-29T02:10:08.246Z,15.24
2022-12-29T02:11:29.772Z,12.37
2022-12-29T02:12:51.461Z,13.74
2022-12-29T02:14:13.377Z,12.36
2022-12-29T02:15:38.507Z,10.01
2022-12-29T02:17:09.604Z,9.84
2022-12-29T02:18:46.881Z,11.48
2022-12-29T02:20:45.165Z,10.09
2022-12-29T02:22:29.957Z,12.67
2022-12-29T02:24:11.768Z,16.61
2022-12-29T02:26:05.039Z,9.72
2022-12-29T02:27:52.608Z,12.42
2022-12-29T02:29:41.431Z,10.20
2022-12-29T02:31:19.131Z,9.97
2022-12-29T02:33:01.808Z,11.91
2022-12-29T02:34:46.532Z,13.59
2022-12-29T02:36:21.297Z,9.21
2022-12-29T02:37:46.027Z,12.48
2022-12-29T02:39:13.779Z,11.23
2022-12-29T02:40:48.092Z,35.68
2022-12-29T02:45:22.508Z,11.78
2022-12-29T02:48:28.380Z,35.83
2022-12-29T02:49:53.625Z,17.07
2022-12-29T02:51:26.876Z,17.98
2022-12-29T02:52:54.427Z,13.21
2022-12-29T02:54:18.047Z,11.14
2022-12-29T02:55:39.489Z,12.73
2022-12-29T02:57:01.154Z,13.22
2022-12-29T02:58:22.887Z,11.51
2022-12-29T02:59:44.201Z,11.54
2022-12-29T03:01:14.583Z,11.93
2022-12-29T03:03:01.129Z,14.34
2022-12-29T03:06:11.163Z,15.63
2022-12-29T03:07:39.062Z,14.24
2022-12-29T03:09:27.251Z,11.69
2022-12-29T03:10:52.439Z,21.19
2022-12-29T03:12:20.378Z,21.16
2022-12-29T03:13:48.223Z,31.97
2022-12-29T03:15:11.939Z,21.49
2022-12-29T03:16:35.958Z,24.11
2022-12-29T03:18:14.860Z,21.65
2022-12-29T03:19:38.023Z,24.24
2022-12-29T03:22:22.093Z,8.39
2022-12-29T03:23:44.165Z,8.34
2022-12-29T03:25:18.257Z,15.87
2022-12-29T03:26:40.850Z,8.53
2022-12-29T03:28:05.613Z,9.63
2022-12-29T03:29:28.331Z,13.09
2022-12-29T03:30:49.821Z,13.44
2022-12-29T03:32:11.759Z,14.14
2022-12-29T03:33:33.355Z,10.36
2022-12-29T03:34:54.773Z,12.09
2022-12-29T03:36:20.923Z,10.29
2022-12-29T03:37:45.909Z,16.01
2022-12-29T03:39:09.819Z,39.97
2022-12-29T03:40:31.564Z,25.80
2022-12-29T03:41:56.093Z,25.23
2022-12-29T03:43:17.224Z,21.36
2022-12-29T03:44:41.021Z,22.70
2022-12-29T03:46:02.232Z,14.19
2022-12-29T03:47:23.389Z,21.70
2022-12-29T03:48:44.787Z,15.06
2022-12-29T03:50:08.423Z,12.54
2022-12-29T03:51:29.377Z,34.13
2022-12-29T03:52:50.811Z,13.33
2022-12-29T03:54:12.076Z,9.98
2022-12-29T03:55:33.717Z,11.89
2022-12-29T03:56:55.235Z,12.44
2022-12-29T03:58:16.630Z,13.23
2022-12-29T03:59:39.719Z,8.88
2022-12-29T04:01:01.588Z,9.97
2022-12-29T04:02:23.673Z,9.45
2022-12-29T04:03:45.423Z,9.21
2022-12-29T04:05:07.089Z,8.66
2022-12-29T04:06:28.729Z,10.18
2022-12-29T04:07:50.173Z,10.51
2022-12-29T04:09:11.287Z,10.93
2022-12-29T04:10:32.691Z,11.69
2022-12-29T04:11:53.820Z,11.34
2022-12-29T04:14:29.922Z,11.58
2022-12-29T04:15:51.704Z,8.85
2022-12-29T04:17:13.082Z,13.13
2022-12-29T04:18:34.127Z,12.48
2022-12-29T04:19:55.585Z,13.73
2022-12-29T04:21:17.259Z,21.33
2022-12-29T04:22:39.832Z,18.09
2022-12-29T04:24:00.866Z,13.06
2022-12-29T04:25:22.052Z,14.04
2022-12-29T04:26:43.861Z,11.26
2022-12-29T04:28:05.414Z,14.07
2022-12-29T04:29:26.497Z,10.59
2022-12-29T04:30:47.860Z,11.44
2022-12-29T04:32:08.975Z,11.17
2022-12-29T04:33:30.021Z,11.88
2022-12-29T04:34:51.443Z,12.81
2022-12-29T04:36:13.889Z,10.12
2022-12-29T04:37:35.132Z,10.74
2022-12-29T04:38:56.164Z,10.63
2022-12-29T04:40:17.677Z,10.33
2022-12-29T04:41:39.228Z,12.44
2022-12-29T04:43:00.321Z,8.94
2022-12-29T04:44:21.365Z,10.47
2022-12-29T04:46:56.179Z,11.16
2022-12-29T04:48:17.829Z,9.73
2022-12-29T04:49:39.523Z,12.71
2022-12-29T04:51:03.141Z,11.02
2022-12-29T04:52:24.682Z,10.49
2022-12-29T04:53:59.477Z,9.58
2022-12-29T04:55:20.739Z,8.48
2022-12-29T04:56:42.341Z,9.99
2022-12-29T04:58:03.687Z,8.02
2022-12-29T04:59:24.697Z,9.14
2022-12-29T05:00:45.819Z,8.07
2022-12-29T05:02:07.137Z,12.95
2022-12-29T05:03:29.783Z,12.23
2022-12-29T05:04:51.218Z,12.19
2022-12-29T05:06:13.262Z,10.36
2022-12-29T05:07:34.973Z,9.39
2022-12-29T05:08:56.115Z,10.87
2022-12-29T05:10:19.311Z,8.34
2022-12-29T05:11:44.236Z,10.34
2022-12-29T05:13:05.246Z,8.98
2022-12-29T05:14:26.545Z,10.23
2022-12-29T05:15:52.848Z,11.18
2022-12-29T05:17:14.180Z,9.98
2022-12-29T05:18:35.745Z,8.51
2022-12-29T05:19:57.215Z,9.66
2022-12-29T05:21:20.081Z,10.06
2022-12-29T05:22:41.865Z,11.65
2022-12-29T05:24:05.332Z,12.89
2022-12-29T05:25:28.008Z,15.09
2022-12-29T05:26:49.719Z,11.18
2022-12-29T05:28:11.322Z,17.74
2022-12-29T05:29:33.785Z,16.21
2022-12-29T05:31:00.062Z,28.01
2022-12-29T05:32:21.391Z,10.36
2022-12-29T05:33:45.351Z,8.16
2022-12-29T05:35:07.897Z,9.29
2022-12-29T05:36:34.451Z,8.49
2022-12-29T05:39:15.253Z,8.64
2022-12-29T05:41:59.810Z,11.28
2022-12-29T05:43:23.699Z,14.33
2022-12-29T05:44:49.405Z,14.97
2022-12-29T05:46:11.005Z,18.23
2022-12-29T05:47:34.197Z,31.16
2022-12-29T05:48:56.799Z,28.94
2022-12-29T05:51:40.012Z,25.19
2022-12-29T05:53:01.423Z,16.79
2022-12-29T05:54:24.155Z,14.74
2022-12-29T05:55:49.255Z,17.52
2022-12-29T05:57:10.836Z,15.43
2022-12-29T05:58:31.961Z,15.27
2022-12-29T05:59:54.372Z,14.85
2022-12-29T06:01:21.225Z,12.63
2022-12-29T06:02:44.850Z,13.95
2022-12-29T06:04:06.504Z,9.82
2022-12-29T06:05:27.806Z,14.18
2022-12-29T06:06:50.496Z,11.29
2022-12-29T06:08:14.420Z,8.26
2022-12-29T06:09:35.842Z,11.22
2022-12-29T06:10:57.909Z,11.04
2022-12-29T06:12:20.338Z,11.43
2022-12-29T06:13:44.039Z,16.44
2022-12-29T06:15:09.221Z,20.19
2022-12-29T06:16:30.776Z,15.94
2022-12-29T06:17:53.945Z,14.53
2022-12-29T06:19:15.386Z,12.93
2022-12-29T06:20:36.648Z,13.74
2022-12-29T06:21:59.786Z,12.24
2022-12-29T06:23:22.505Z,15.03
2022-12-29T06:24:45.809Z,11.25
2022-12-29T06:26:07.496Z,15.49
2022-12-29T06:27:29.989Z,13.78
2022-12-29T06:29:01.727Z,7.20
2022-12-29T06:30:24.900Z,11.30
2022-12-29T06:31:48.579Z,13.62
2022-12-29T06:33:12.110Z,12.37
2022-12-29T06:34:33.877Z,15.27
2022-12-29T06:35:55.059Z,14.29
2022-12-29T06:37:17.309Z,15.79
2022-12-29T06:40:21.394Z,19.76
2022-12-29T06:41:45.780Z,19.11
2022-12-29T06:43:09.613Z,19.26
2022-12-29T06:44:31.266Z,20.87
2022-12-29T06:45:52.751Z,18.11
2022-12-29T06:47:16.898Z,19.09
2022-12-29T06:48:41.350Z,20.17
2022-12-29T06:50:02.929Z,19.31
2022-12-29T06:51:26.357Z,19.23
2022-12-29T06:52:50.331Z,19.29
2022-12-29T06:54:13.917Z,15.22
2022-12-29T06:55:36.061Z,16.54
2022-12-29T06:56:57.887Z,13.99
2022-12-29T06:58:19.290Z,16.37
2022-12-29T06:59:41.952Z,17.45
2022-12-29T07:02:46.343Z,14.07
2022-12-29T07:04:07.862Z,20.12
2022-12-29T07:05:32.676Z,15.42
2022-12-29T07:06:57.570Z,17.93
2022-12-29T07:08:24.378Z,20.09
2022-12-29T07:09:46.431Z,13.02
2022-12-29T07:11:08.014Z,15.80
2022-12-29T07:12:31.846Z,24.09
2022-12-29T07:13:54.535Z,21.51
2022-12-29T07:15:18.381Z,19.30
2022-12-29T07:16:39.953Z,17.38
2022-12-29T07:18:03.943Z,18.86
2022-12-29T07:19:25.354Z,16.62
2022-12-29T07:20:46.849Z,19.45
2022-12-29T07:22:09.021Z,20.03
2022-12-29T07:23:30.801Z,19.49
2022-12-29T07:24:52.298Z,19.02
2022-12-29T07:26:14.692Z,21.06
2022-12-29T07:27:36.230Z,30.90
2022-12-29T07:28:57.462Z,29.51
2022-12-29T07:30:19.045Z,29.36
2022-12-29T07:31:40.883Z,33.06
2022-12-29T07:33:05.321Z,30.94
2022-12-29T07:34:26.871Z,34.81
2022-12-29T07:35:49.312Z,41.04
2022-12-29T07:37:34.355Z,28.78
2022-12-29T07:38:56.581Z,26.60
2022-12-29T07:40:25.565Z,33.36
2022-12-29T07:41:51.671Z,25.71
2022-12-29T07:43:14.634Z,17.82
2022-12-29T07:44:36.401Z,17.11
2022-12-29T07:45:58.843Z,21.72
2022-12-29T07:47:20.149Z,27.87
2022-12-29T07:48:41.500Z,27.09
2022-12-29T07:50:54.857Z,27.94
2022-12-29T07:52:29.247Z,20.86
2022-12-29T07:53:50.889Z,23.18
2022-12-29T07:55:12.617Z,26.94
2022-12-29T07:56:33.929Z,25.66
2022-12-29T07:57:55.340Z,30.96
2022-12-29T07:59:17.197Z,31.99
2022-12-29T08:00:38.844Z,37.06
2022-12-29T08:02:02.797Z,14.62
2022-12-29T08:03:32.110Z,35.57
2022-12-29T08:04:54.011Z,76.98
2022-12-29T08:06:17.787Z,30.13
2022-12-29T08:07:39.186Z,25.82
2022-12-29T08:10:32.861Z,15.96
2022-12-29T08:11:57.667Z,18.48
2022-12-29T08:13:18.823Z,22.36
2022-12-29T08:14:46.038Z,17.41
2022-12-29T08:16:08.713Z,16.62
2022-12-29T08:19:17.616Z,16.15
2022-12-29T08:20:41.563Z,25.69
2022-12-29T08:22:08.866Z,16.84
2022-12-29T08:24:48.853Z,17.09
2022-12-29T08:26:10.562Z,21.23
2022-12-29T08:27:32.034Z,22.60
2022-12-29T08:28:54.056Z,24.47
2022-12-29T08:30:16.319Z,19.30
2022-12-29T08:31:38.070Z,21.57
2022-12-29T08:32:59.499Z,22.28
2022-12-29T08:34:21.016Z,25.21
2022-12-29T08:35:42.680Z,29.93
2022-12-29T08:37:04.386Z,26.87
2022-12-29T08:38:25.632Z,23.09
2022-12-29T08:39:47.532Z,19.23
2022-12-29T08:41:09.016Z,18.92
2022-12-29T08:42:32.340Z,13.25
2022-12-29T08:43:53.735Z,16.12
2022-12-29T08:45:14.930Z,12.19
2022-12-29T08:46:36.822Z,15.37
2022-12-29T08:47:58.541Z,16.15
2022-12-29T08:49:20.241Z,13.30
2022-12-29T08:50:43.674Z,13.98
2022-12-29T08:53:25.872Z,14.87
2022-12-29T08:54:47.331Z,14.47
2022-12-29T08:56:09.453Z,15.64
2022-12-29T08:57:30.725Z,14.66
2022-12-29T08:58:53.946Z,15.94
2022-12-29T09:00:16.393Z,14.89
2022-12-29T09:01:37.633Z,18.45
2022-12-29T09:04:24.893Z,15.71
2022-12-29T09:05:49.982Z,17.68
2022-12-29T09:07:11.540Z,18.63
2022-12-29T09:08:32.635Z,20.01
2022-12-29T09:09:53.601Z,16.58
2022-12-29T09:11:19.612Z,17.35
2022-12-29T09:12:42.262Z,19.53
2022-12-29T09:14:03.824Z,12.98
2022-12-29T09:15:25.184Z,18.72
2022-12-29T09:16:46.512Z,19.83
2022-12-29T09:18:07.915Z,29.39
2022-12-29T09:19:30.289Z,19.46
2022-12-29T09:22:47.824Z,13.82
2022-12-29T09:24:11.529Z,14.14
2022-12-29T09:25:39.231Z,15.92
2022-12-29T09:27:03.451Z,16.81
2022-12-29T09:28:25.615Z,15.39
2022-12-29T09:29:47.624Z,15.95
2022-12-29T09:31:16.937Z,18.69
2022-12-29T09:32:44.568Z,17.19
2022-12-29T09:34:03.480Z,16.52
2022-12-29T09:35:25.905Z,14.99
2022-12-29T09:36:52.267Z,14.63
2022-12-29T09:38:16.623Z,18.48
2022-12-29T09:39:40.105Z,16.02
2022-12-29T09:55:13.771Z,11.04
2022-12-29T09:57:50.316Z,15.47
2022-12-29T09:59:19.900Z,12.95
2022-12-29T10:01:13.720Z,13.28
2022-12-29T10:02:54.658Z,13.41
2022-12-29T10:04:17.908Z,11.76
2022-12-29T10:08:24.826Z,12.10
2022-12-29T10:10:08.451Z,16.63
2022-12-29T10:11:47.252Z,11.44
2022-12-29T10:13:46.429Z,12.96
2022-12-29T10:15:39.087Z,10.13
2022-12-29T10:17:22.866Z,10.81
2022-12-29T10:23:00.990Z,19.53
2022-12-29T10:24:26.906Z,13.94
2022-12-29T10:47:05.848Z,19.91
2022-12-29T10:48:32.180Z,18.66
2022-12-29T10:49:53.783Z,16.22
2022-12-29T10:51:21.863Z,17.00
2022-12-29T10:52:44.951Z,22.92
2022-12-29T10:55:30.300Z,18.14
2022-12-29T10:57:08.265Z,14.65
2022-12-29T10:58:29.765Z,17.72
2022-12-29T10:59:51.880Z,29.81
2022-12-29T11:01:13.194Z,17.96
2022-12-29T11:02:57.693Z,32.59
2022-12-29T11:04:41.252Z,20.75
2022-12-29T11:06:09.517Z,17.34
2022-12-29T11:07:30.950Z,12.95
2022-12-29T11:09:00.503Z,15.60
2022-12-29T11:10:37.161Z,15.78
2022-12-29T11:12:21.136Z,14.86
2022-12-29T11:13:54.949Z,11.21
2022-12-29T11:16:41.429Z,14.66
2022-12-29T11:18:02.710Z,11.99
2022-12-29T11:19:25.806Z,13.42
2022-12-29T11:22:26.189Z,10.21
2022-12-29T11:23:50.718Z,10.73
2022-12-29T11:25:12.984Z,11.50
2022-12-29T11:26:35.154Z,12.28
2022-12-29T11:29:32.182Z,13.42
2022-12-29T11:30:58.271Z,9.69
2022-12-29T11:32:28.540Z,10.98
2022-12-29T11:33:48.437Z,12.68
2022-12-29T11:35:14.403Z,10.60
2022-12-29T11:36:37.609Z,11.00
2022-12-29T11:38:12.251Z,10.43
2022-12-29T11:39:56.132Z,10.15
2022-12-29T11:41:32.963Z,8.28
2022-12-29T11:43:02.932Z,11.14
2022-12-29T11:44:24.287Z,13.06
2022-12-29T11:45:51.914Z,11.41
2022-12-29T11:48:42.616Z,9.54
2022-12-29T11:50:07.783Z,11.78
2022-12-29T11:51:32.884Z,11.04
2022-12-29T11:53:03.682Z,9.91
2022-12-29T11:54:31.390Z,12.77
2022-12-29T11:55:58.606Z,13.93
2022-12-29T11:57:20.661Z,13.52
2022-12-29T11:58:41.875Z,9.96
2022-12-29T12:00:18.668Z,11.82
2022-12-29T12:01:40.452Z,14.62
2022-12-29T12:04:25.186Z,11.59
2022-12-29T12:07:11.174Z,38.42
2022-12-29T12:10:07.119Z,12.72
2022-12-29T12:11:33.586Z,10.26
2022-12-29T12:13:08.460Z,20.90
2022-12-29T12:14:38.867Z,13.23
2022-12-29T12:16:07.020Z,10.75
2022-12-29T12:17:32.527Z,18.13
2022-12-29T12:18:56.059Z,12.68
2022-12-29T12:22:22.305Z,11.16
2022-12-29T12:23:52.607Z,15.13
2022-12-29T12:26:59.048Z,15.10
2022-12-29T12:29:51.062Z,12.69
2022-12-29T12:32:43.481Z,12.30
2022-12-29T12:34:06.968Z,10.52
2022-12-29T12:35:51.387Z,12.36
2022-12-29T12:37:33.312Z,12.54
2022-12-29T12:39:01.101Z,13.76
2022-12-29T12:40:32.497Z,14.77
2022-12-29T12:42:03.217Z,13.97
2022-12-29T12:43:42.143Z,9.54
2022-12-29T12:45:40.669Z,13.53
2022-12-29T12:47:12.009Z,14.91
2022-12-29T12:48:45.792Z,15.43
2022-12-29T12:51:47.826Z,11.34
2022-12-29T12:54:53.657Z,9.44
2022-12-29T12:56:36.360Z,11.66
2022-12-29T12:58:04.420Z,10.98
2022-12-29T13:02:06.457Z,13.04
2022-12-29T13:08:29.128Z,9.58
2022-12-29T13:10:19.728Z,11.56
2022-12-29T13:13:47.712Z,10.81
2022-12-29T13:15:21.604Z,10.96
2022-12-29T13:18:27.001Z,14.21
2022-12-29T13:21:36.990Z,13.93
2022-12-29T13:23:04.952Z,12.31
2022-12-29T13:24:49.887Z,12.92
2022-12-29T13:26:27.569Z,13.37
2022-12-29T13:27:58.942Z,13.66
2022-12-29T13:29:52.930Z,14.63
2022-12-29T13:31:34.395Z,12.45
2022-12-29T13:33:08.683Z,16.31
2022-12-29T13:34:42.912Z,14.66
2022-12-29T13:36:07.843Z,19.93
2022-12-29T13:37:31.804Z,15.93
2022-12-29T13:39:17.537Z,19.58
2022-12-29T13:40:40.470Z,18.12
2022-12-29T13:42:02.488Z,17.78
2022-12-29T13:43:24.172Z,14.94
2022-12-29T13:46:16.522Z,16.81
2022-12-29T13:47:53.670Z,15.54
2022-12-29T13:49:19.704Z,15.74
2022-12-29T13:50:41.267Z,15.21
2022-12-29T13:53:59.530Z,19.62
2022-12-29T13:55:39.615Z,16.58
2022-12-29T13:57:24.101Z,16.31
2022-12-29T13:58:58.111Z,15.59
2022-12-29T14:03:34.499Z,16.27
2022-12-29T14:06:32.543Z,18.09
2022-12-29T14:08:01.628Z,15.77
2022-12-29T14:09:49.385Z,17.61
2022-12-29T14:12:36.879Z,18.01
2022-12-29T14:13:58.467Z,17.37
2022-12-29T14:16:36.754Z,13.49
2022-12-29T14:18:11.909Z,16.95
2022-12-29T14:19:41.541Z,16.82
2022-12-29T14:21:16.081Z,16.25
2022-12-29T14:22:38.549Z,16.19
2022-12-29T14:24:30.412Z,15.89
2022-12-29T14:26:16.768Z,17.66
2022-12-29T14:30:50.324Z,23.71
2022-12-29T14:32:27.667Z,14.38
2022-12-29T14:34:11.127Z,18.21
2022-12-29T14:35:38.425Z,16.56
2022-12-29T14:37:02.801Z,14.09
2022-12-29T14:39:44.875Z,15.88
2022-12-29T14:41:38.253Z,17.64
2022-12-29T14:42:59.839Z,17.36
2022-12-29T14:44:21.380Z,17.27
2022-12-29T14:45:46.772Z,12.86
2022-12-29T14:47:08.370Z,16.96
2022-12-29T14:48:32.839Z,15.93
2022-12-29T14:49:53.866Z,14.69
2022-12-29T15:00:47.863Z,13.86
2022-12-29T15:02:20.982Z,13.06
2022-12-29T15:03:46.626Z,15.72
2022-12-29T15:05:27.139Z,16.82
2022-12-29T15:06:49.312Z,18.52
2022-12-29T15:08:11.190Z,18.71
2022-12-29T15:09:37.195Z,31.49
2022-12-29T15:11:13.827Z,34.39
2022-12-29T15:13:53.828Z,27.51
2022-12-29T15:15:20.627Z,18.75
2022-12-29T15:16:42.199Z,25.57
2022-12-29T15:18:22.042Z,27.59
2022-12-29T15:19:43.552Z,25.41
2022-12-29T15:21:05.915Z,26.38
2022-12-29T15:22:27.473Z,28.36
2022-12-29T15:23:49.769Z,32.98
2022-12-29T15:25:15.725Z,23.07
2022-12-29T15:26:38.725Z,23.54
2022-12-29T15:28:04.300Z,25.94
2022-12-29T15:29:33.751Z,24.08
2022-12-29T15:30:57.513Z,35.30
2022-12-29T15:32:27.203Z,45.27
2022-12-29T15:33:50.242Z,34.45
2022-12-29T15:36:46.009Z,39.93
2022-12-29T15:39:41.263Z,37.75
2022-12-29T15:41:24.324Z,31.04
2022-12-29T15:43:07.703Z,28.02
2022-12-29T15:44:32.292Z,30.26
2022-12-29T15:45:53.562Z,37.87
2022-12-29T15:47:19.770Z,33.87
2022-12-29T15:48:41.103Z,34.70
2022-12-29T15:50:23.492Z,35.27
2022-12-29T15:51:45.334Z,31.89
2022-12-29T15:53:13.501Z,29.86
2022-12-29T15:54:34.721Z,46.42
2022-12-29T15:56:07.398Z,34.59
2022-12-29T15:57:30.377Z,35.57
2022-12-29T16:00:30.374Z,38.18
2022-12-29T16:01:51.670Z,36.57
2022-12-29T16:03:13.601Z,35.33
2022-12-29T16:04:48.677Z,36.36
2022-12-29T16:07:28.382Z,37.37
2022-12-29T16:09:09.212Z,34.11
2022-12-29T16:10:33.757Z,27.27
2022-12-29T16:11:56.276Z,33.39
2022-12-29T16:15:00.839Z,30.88
2022-12-29T16:17:51.619Z,31.48
2022-12-29T16:19:39.507Z,37.92
2022-12-29T16:21:01.064Z,43.48
2022-12-29T16:22:37.051Z,34.98
2022-12-29T16:24:00.926Z,36.02
2022-12-29T16:25:32.598Z,34.27
2022-12-29T16:28:41.669Z,48.55
2022-12-29T16:30:05.645Z,41.73
2022-12-29T16:31:39.036Z,42.97
2022-12-29T16:34:31.559Z,41.00
2022-12-29T16:35:53.078Z,37.76
2022-12-29T16:38:47.637Z,45.24
2022-12-29T16:40:30.863Z,56.36
2022-12-29T16:41:55.367Z,56.21
2022-12-29T16:43:25.604Z,42.67
2022-12-29T16:44:46.838Z,36.49
2022-12-29T16:46:18.347Z,29.83
2022-12-29T16:47:40.381Z,25.55
2022-12-29T16:49:01.739Z,26.44
2022-12-29T16:50:28.260Z,24.82
2022-12-29T16:51:45.697Z,29.50
2022-12-29T16:53:07.370Z,27.02
2022-12-29T16:56:21.073Z,30.53
2022-12-29T16:57:44.033Z,30.26
2022-12-29T16:59:27.126Z,38.32
2022-12-29T17:00:48.587Z,31.13
2022-12-29T17:03:33.793Z,22.92
2022-12-29T17:04:55.416Z,31.01
2022-12-29T17:07:40.521Z,29.54
2022-12-29T17:09:01.893Z,31.27
2022-12-29T17:10:23.547Z,34.00
2022-12-29T17:11:45.492Z,36.42
2022-12-29T17:13:07.129Z,35.56
2022-12-29T17:14:41.433Z,36.24
2022-12-29T17:16:03.589Z,38.87
2022-12-29T17:17:34.975Z,33.11
2022-12-29T17:18:56.165Z,38.58
2022-12-29T17:20:20.428Z,34.13
2022-12-29T17:21:41.704Z,37.96
2022-12-29T17:23:05.230Z,30.50
2022-12-29T17:24:27.064Z,30.47
2022-12-29T17:25:48.436Z,32.71
2022-12-29T17:27:13.080Z,32.63
2022-12-29T17:28:34.645Z,38.24
2022-12-29T17:31:10.781Z,37.40
2022-12-29T17:32:32.091Z,45.46
2022-12-29T17:33:53.473Z,43.61
2022-12-29T17:35:17.843Z,40.73
2022-12-29T17:36:42.560Z,34.03
2022-12-29T17:39:24.160Z,35.45
2022-12-29T17:40:45.722Z,37.38
2022-12-29T17:42:09.388Z,47.83
2022-12-29T17:43:36.650Z,37.68
2022-12-29T17:46:17.772Z,45.00
2022-12-29T17:47:38.909Z,45.27
2022-12-29T17:49:00.195Z,43.93
2022-12-29T17:50:24.443Z,47.26
2022-12-29T17:51:45.863Z,55.16
2022-12-29T17:53:12.823Z,47.59
2022-12-29T17:54:34.097Z,50.74
2022-12-29T17:55:55.450Z,42.76
2022-12-29T17:57:17.228Z,30.39
2022-12-29T17:58:38.321Z,33.79
2022-12-29T17:59:59.321Z,26.94
2022-12-29T18:01:20.916Z,31.28
2022-12-29T18:02:42.428Z,31.52
2022-12-29T18:04:04.736Z,29.62
2022-12-29T18:05:29.306Z,30.12
2022-12-29T18:06:51.054Z,31.68
2022-12-29T18:08:12.428Z,31.36
2022-12-29T18:09:36.598Z,31.98
2022-12-29T18:10:58.407Z,31.43
2022-12-29T18:12:39.226Z,32.97
2022-12-29T18:14:00.797Z,32.94
2022-12-29T18:15:24.203Z,34.48
2022-12-29T18:16:45.666Z,32.62
2022-12-29T18:18:13.840Z,36.42
2022-12-29T18:19:36.258Z,28.00
2022-12-29T18:20:58.715Z,45.67
2022-12-29T18:22:21.481Z,31.64
2022-12-29T18:23:42.750Z,31.87
2022-12-29T18:25:13.620Z,27.94
2022-12-29T18:26:34.752Z,32.49
2022-12-29T18:27:56.038Z,25.34
2022-12-29T18:29:17.248Z,28.37
2022-12-29T18:30:39.021Z,28.08
2022-12-29T18:32:01.999Z,24.36
2022-12-29T18:33:26.246Z,23.32
2022-12-29T18:34:46.801Z,32.83
2022-12-29T18:36:11.088Z,23.22
2022-12-29T18:37:32.221Z,19.36
2022-12-29T18:38:53.606Z,21.22
2022-12-29T18:40:15.867Z,17.36
2022-12-29T18:41:37.095Z,25.03
2022-12-29T18:42:58.067Z,27.67
2022-12-29T18:44:19.210Z,46.04
2022-12-29T18:45:41.717Z,41.38
2022-12-29T18:47:02.872Z,35.24
2022-12-29T18:48:24.204Z,23.04
2022-12-29T18:49:46.117Z,24.79
2022-12-29T18:51:09.067Z,29.87
2022-12-29T18:53:54.962Z,22.88
2022-12-29T18:56:35.777Z,29.98
2022-12-29T18:58:00.077Z,29.42
2022-12-29T18:59:21.347Z,27.48
2022-12-29T19:00:43.234Z,29.54
2022-12-29T19:02:05.916Z,32.46
2022-12-29T19:03:27.435Z,27.56
2022-12-29T19:04:53.086Z,31.36
2022-12-29T19:06:15.268Z,28.09
2022-12-29T19:07:36.641Z,27.43
2022-12-29T19:08:57.713Z,26.26
2022-12-29T19:10:19.665Z,26.21
2022-12-29T19:11:40.639Z,24.40
2022-12-29T19:13:02.018Z,25.51
2022-12-29T19:14:23.356Z,26.33
2022-12-29T19:15:47.090Z,28.24
2022-12-29T19:17:10.765Z,27.24
2022-12-29T19:18:44.060Z,30.51
2022-12-29T19:20:01.532Z,28.22
2022-12-29T19:21:23.064Z,27.98
2022-12-29T19:22:44.463Z,27.91
2022-12-29T19:24:06.006Z,22.92
2022-12-29T19:25:27.524Z,19.90
2022-12-29T19:26:48.933Z,22.37
2022-12-29T19:29:37.315Z,20.95
2022-12-29T19:31:01.409Z,16.11
2022-12-29T19:32:22.953Z,18.92
2022-12-29T19:33:48.372Z,16.90
2022-12-29T19:35:11.825Z,16.93
2022-12-29T19:36:33.450Z,16.21
2022-12-29T19:37:54.797Z,19.68
2022-12-29T19:39:16.416Z,20.49
2022-12-29T19:42:05.667Z,17.22
2022-12-29T19:43:27.442Z,18.32
2022-12-29T19:44:48.992Z,19.14
2022-12-29T19:46:16.507Z,20.27
2022-12-29T19:47:41.143Z,18.78
2022-12-29T19:49:02.074Z,20.77
2022-12-29T19:50:23.649Z,18.48
2022-12-29T19:51:48.611Z,18.99
2022-12-29T19:53:09.863Z,20.10
2022-12-29T19:54:31.240Z,19.74
2022-12-29T19:55:52.528Z,19.91
2022-12-29T19:57:14.036Z,20.84
2022-12-29T19:58:36.124Z,18.87
2022-12-29T19:59:57.335Z,19.00
2022-12-29T20:01:20.829Z,21.54
2022-12-29T20:02:42.390Z,24.03
2022-12-29T20:04:03.835Z,24.06
2022-12-29T20:05:25.287Z,23.51
2022-12-29T20:06:47.276Z,24.01
2022-12-29T20:08:08.576Z,27.07
2022-12-29T20:09:29.860Z,30.57
2022-12-29T20:11:05.506Z,25.75
2022-12-29T20:12:29.355Z,25.26
2022-12-29T20:13:49.660Z,29.87
2022-12-29T20:15:10.992Z,25.71
2022-12-29T20:16:32.999Z,26.31
2022-12-29T20:19:18.576Z,32.08
2022-12-29T20:20:39.989Z,31.73
2022-12-29T20:22:03.693Z,29.17
2022-12-29T20:23:24.932Z,24.87
2022-12-29T20:24:50.042Z,24.71
2022-12-29T20:27:35.197Z,22.74
2022-12-29T20:28:56.819Z,21.97
2022-12-29T20:30:18.090Z,20.18
2022-12-29T20:31:39.723Z,21.55
2022-12-29T20:33:06.209Z,20.49
2022-12-29T20:34:26.303Z,22.93
2022-12-29T20:35:47.622Z,24.06
2022-12-29T20:37:09.904Z,23.74
2022-12-29T20:39:53.181Z,21.18
2022-12-29T20:41:14.805Z,27.29
2022-12-29T20:42:37.182Z,22.82
2022-12-29T20:43:58.737Z,23.33
2022-12-29T20:45:20.317Z,20.11
2022-12-29T20:46:44.140Z,16.69
2022-12-29T20:49:27.594Z,19.56
2022-12-29T20:50:51.511Z,21.56
2022-12-29T20:52:14.929Z,23.19
2022-12-29T20:53:37.507Z,26.38
2022-12-29T20:54:58.645Z,22.73
2022-12-29T20:56:22.882Z,26.46
2022-12-29T20:58:22.135Z,18.29
2022-12-29T21:01:59.561Z,17.95
2022-12-29T21:03:21.399Z,18.54
2022-12-29T21:05:22.027Z,17.50
2022-12-29T21:06:10.745Z,18.78
2022-12-29T21:07:32.121Z,16.33
2022-12-29T21:08:53.554Z,15.06
2022-12-29T21:10:16.300Z,17.37
2022-12-29T21:11:37.704Z,18.04
2022-12-29T21:12:59.145Z,17.88